sensor_id;sensor_type;location;lat;lon;timestamp;pressure;altitude;pressure_sealevel;temperature;humidity
34674;BME280;20879;55.668;37.858;2023-03-16T00:02:09;99451.78;;;2.88;91.05
34674;BME280;20879;55.668;37.858;2023-03-16T00:04:43;99446.66;;;2.88;91.88
34674;BME280;20879;55.668;37.858;2023-03-16T00:07:14;99433.81;;;2.82;91.48
34674;BME280;20879;55.668;37.858;2023-03-16T00:09:43;99429.38;;;2.67;92.39
34674;BME280;20879;55.668;37.858;2023-03-16T00:12:18;99389.75;;;2.31;93.24
34674;BME280;20879;55.668;37.858;2023-03-16T00:14:50;99428.19;;;2.40;94.14
34674;BME280;20879;55.668;37.858;2023-03-16T00:17:20;99413.53;;;2.26;96.00
34674;BME280;20879;55.668;37.858;2023-03-16T00:19:51;99434.78;;;2.24;95.58
34674;BME280;20879;55.668;37.858;2023-03-16T00:22:23;99415.28;;;2.31;95.46
34674;BME280;20879;55.668;37.858;2023-03-16T00:24:58;99412.78;;;2.35;95.71
34674;BME280;20879;55.668;37.858;2023-03-16T00:27:28;99423.94;;;2.40;95.19
34674;BME280;20879;55.668;37.858;2023-03-16T00:30:00;99385.41;;;2.25;94.99
34674;BME280;20879;55.668;37.858;2023-03-16T00:32:33;99416.34;;;2.45;95.53
34674;BME280;20879;55.668;37.858;2023-03-16T00:35:13;99408.69;;;2.47;95.18
34674;BME280;20879;55.668;37.858;2023-03-16T00:37:43;99412.09;;;2.47;94.85
34674;BME280;20879;55.668;37.858;2023-03-16T00:40:13;99407.75;;;2.40;94.74
34674;BME280;20879;55.668;37.858;2023-03-16T00:42:49;99419.78;;;2.49;94.61
34674;BME280;20879;55.668;37.858;2023-03-16T00:45:22;99429.19;;;2.51;94.73
34674;BME280;20879;55.668;37.858;2023-03-16T00:47:51;99422.38;;;2.53;94.38
34674;BME280;20879;55.668;37.858;2023-03-16T00:50:21;99421.47;;;2.47;94.01
34674;BME280;20879;55.668;37.858;2023-03-16T00:52:50;99430.91;;;2.51;94.14
34674;BME280;20879;55.668;37.858;2023-03-16T00:55:20;99418.06;;;2.48;94.40
34674;BME280;20879;55.668;37.858;2023-03-16T00:57:49;99424.06;;;2.51;94.29
34674;BME280;20879;55.668;37.858;2023-03-16T01:00:19;99421.50;;;2.50;94.51
34674;BME280;20879;55.668;37.858;2023-03-16T01:02:54;99430.16;;;2.61;94.42
34674;BME280;20879;55.668;37.858;2023-03-16T01:05:28;99419.88;;;2.55;94.25
34674;BME280;20879;55.668;37.858;2023-03-16T01:08:03;99425.81;;;2.54;94.34
34674;BME280;20879;55.668;37.858;2023-03-16T01:10:33;99413.81;;;2.48;94.16
34674;BME280;20879;55.668;37.858;2023-03-16T01:13:07;99425.88;;;2.58;94.42
34674;BME280;20879;55.668;37.858;2023-03-16T01:15:38;99422.47;;;2.58;93.42
34674;BME280;20879;55.668;37.858;2023-03-16T01:18:10;99426.69;;;2.56;94.42
34674;BME280;20879;55.668;37.858;2023-03-16T01:20:45;99420.63;;;2.46;94.14
34674;BME280;20879;55.668;37.858;2023-03-16T01:23:17;99430.09;;;2.55;95.42
34674;BME280;20879;55.668;37.858;2023-03-16T01:25:46;99423.13;;;2.44;94.17
34674;BME280;20879;55.668;37.858;2023-03-16T01:28:19;99423.19;;;2.48;93.76
34674;BME280;20879;55.668;37.858;2023-03-16T01:31:01;99418.81;;;2.37;93.96
34674;BME280;20879;55.668;37.858;2023-03-16T01:33:34;99423.06;;;2.38;93.83
34674;BME280;20879;55.668;37.858;2023-03-16T01:36:14;99426.50;;;2.40;93.97
34674;BME280;20879;55.668;37.858;2023-03-16T01:39:00;99421.41;;;2.40;93.85
34674;BME280;20879;55.668;37.858;2023-03-16T01:41:40;99419.81;;;2.52;93.45
34674;BME280;20879;55.668;37.858;2023-03-16T01:44:11;99421.56;;;2.56;93.37
34674;BME280;20879;55.668;37.858;2023-03-16T01:46:46;99411.28;;;2.50;93.51
34674;BME280;20879;55.668;37.858;2023-03-16T01:49:21;99415.63;;;2.57;93.52
34674;BME280;20879;55.668;37.858;2023-03-16T01:52:02;99422.47;;;2.58;93.06
34674;BME280;20879;55.668;37.858;2023-03-16T01:54:35;99395.84;;;2.40;93.26
34674;BME280;20879;55.668;37.858;2023-03-16T01:57:14;99414.69;;;2.52;93.09
34674;BME280;20879;55.668;37.858;2023-03-16T01:59:47;99418.06;;;2.48;93.15
34674;BME280;20879;55.668;37.858;2023-03-16T02:02:22;99413.81;;;2.48;93.51
34674;BME280;20879;55.668;37.858;2023-03-16T02:04:58;99415.50;;;2.46;93.25
34674;BME280;20879;55.668;37.858;2023-03-16T02:07:33;99419.81;;;2.52;92.64
34674;BME280;20879;55.668;37.858;2023-03-16T02:10:10;99428.34;;;2.52;92.54
34674;BME280;20879;55.668;37.858;2023-03-16T02:12:41;99417.22;;;2.49;92.24
34674;BME280;20879;55.668;37.858;2023-03-16T02:15:13;99429.19;;;2.53;92.29
34674;BME280;20879;55.668;37.858;2023-03-16T02:17:43;99402.59;;;2.38;92.33
34674;BME280;20879;55.668;37.858;2023-03-16T02:20:25;99425.06;;;2.61;92.25
34674;BME280;20879;55.668;37.858;2023-03-16T02:22:57;99420.81;;;2.63;91.72
34674;BME280;20879;55.668;37.858;2023-03-16T02:25:38;99423.31;;;2.58;91.73
34674;BME280;20879;55.668;37.858;2023-03-16T02:28:13;99424.25;;;2.64;91.34
34674;BME280;20879;55.668;37.858;2023-03-16T02:30:50;99385.69;;;2.47;91.43
34674;BME280;20879;55.668;37.858;2023-03-16T02:33:25;99403.72;;;2.59;90.80
34674;BME280;20879;55.668;37.858;2023-03-16T02:35:54;99424.91;;;2.52;91.21
34674;BME280;20879;55.668;37.858;2023-03-16T02:38:25;99413.06;;;2.57;91.10
34674;BME280;20879;55.668;37.858;2023-03-16T02:40:57;99400.22;;;2.51;90.97
34674;BME280;20879;55.668;37.858;2023-03-16T02:43:34;99412.25;;;2.59;90.99
34674;BME280;20879;55.668;37.858;2023-03-16T02:46:27;99396.00;;;2.56;90.81
34674;BME280;20879;55.668;37.858;2023-03-16T02:49:05;99400.41;;;2.68;90.76
34674;BME280;20879;55.668;37.858;2023-03-16T02:51:36;99374.72;;;2.55;90.07
34674;BME280;20879;55.668;37.858;2023-03-16T02:54:06;99376.59;;;2.72;90.29
34674;BME280;20879;55.668;37.858;2023-03-16T02:56:35;99385.78;;;2.54;89.80
34674;BME280;20879;55.668;37.858;2023-03-16T02:59:05;99398.53;;;2.53;89.92
34674;BME280;20879;55.668;37.858;2023-03-16T03:01:36;99400.28;;;2.55;90.31
34674;BME280;20879;55.668;37.858;2023-03-16T03:04:07;99401.13;;;2.56;90.04
34674;BME280;20879;55.668;37.858;2023-03-16T03:06:36;99396.03;;;2.59;89.62
34674;BME280;20879;55.668;37.858;2023-03-16T03:09:06;99394.22;;;2.50;89.89
34674;BME280;20879;55.668;37.858;2023-03-16T03:11:37;99394.31;;;2.55;89.65
34674;BME280;20879;55.668;37.858;2023-03-16T03:14:08;99387.34;;;2.44;89.50
34674;BME280;20879;55.668;37.858;2023-03-16T03:16:48;99401.09;;;2.54;89.67
34674;BME280;20879;55.668;37.858;2023-03-16T03:19:17;99400.41;;;2.66;89.82
34674;BME280;20879;55.668;37.858;2023-03-16T03:21:47;99389.25;;;2.59;89.34
34674;BME280;20879;55.668;37.858;2023-03-16T03:24:23;99392.69;;;2.63;89.09
34674;BME280;20879;55.668;37.858;2023-03-16T03:26:53;99384.16;;;2.61;88.80
34674;BME280;20879;55.668;37.858;2023-03-16T03:29:23;99382.50;;;2.68;88.94
34674;BME280;20879;55.668;37.858;2023-03-16T03:32:02;99380.72;;;2.59;89.30
34674;BME280;20879;55.668;37.858;2023-03-16T03:34:38;99369.66;;;2.60;89.24
34674;BME280;20879;55.668;37.858;2023-03-16T03:37:08;99364.50;;;2.55;89.30
34674;BME280;20879;55.668;37.858;2023-03-16T03:39:39;99374.72;;;2.57;89.24
34674;BME280;20879;55.668;37.858;2023-03-16T03:42:10;99362.78;;;2.56;89.03
34674;BME280;20879;55.668;37.858;2023-03-16T03:44:44;99376.56;;;2.69;89.25
34674;BME280;20879;55.668;37.858;2023-03-16T03:47:21;99335.34;;;2.41;89.03
34674;BME280;20879;55.668;37.858;2023-03-16T03:49:50;99379.97;;;2.68;88.84
34674;BME280;20879;55.668;37.858;2023-03-16T03:52:19;99382.50;;;2.66;88.84
34674;BME280;20879;55.668;37.858;2023-03-16T03:54:49;99358.47;;;2.52;88.75
34674;BME280;20879;55.668;37.858;2023-03-16T03:57:18;99385.06;;;2.66;89.11
34674;BME280;20879;55.668;37.858;2023-03-16T03:59:49;99390.81;;;2.48;89.00
34674;BME280;20879;55.668;37.858;2023-03-16T04:02:45;99387.44;;;2.51;89.61
34674;BME280;20879;55.668;37.858;2023-03-16T04:05:22;99381.41;;;2.47;90.02
34674;BME280;20879;55.668;37.858;2023-03-16T04:07:53;99394.22;;;2.49;89.50
34674;BME280;20879;55.668;37.858;2023-03-16T04:10:29;99354.66;;;2.17;89.64
34674;BME280;20879;55.668;37.858;2023-03-16T04:12:59;99403.53;;;2.43;89.81
34674;BME280;20879;55.668;37.858;2023-03-16T04:15:32;99404.44;;;2.49;89.91
34674;BME280;20879;55.668;37.858;2023-03-16T04:18:17;99401.91;;;2.50;89.91
34674;BME280;20879;55.668;37.858;2023-03-16T04:20:51;99398.50;;;2.51;89.63
34674;BME280;20879;55.668;37.858;2023-03-16T04:23:26;99352.22;;;2.26;89.70
34674;BME280;20879;55.668;37.858;2023-03-16T04:26:01;99395.94;;;2.50;89.38
34674;BME280;20879;55.668;37.858;2023-03-16T04:28:32;99355.66;;;2.29;89.25
34674;BME280;20879;55.668;37.858;2023-03-16T04:31:09;99392.56;;;2.51;89.21
34674;BME280;20879;55.668;37.858;2023-03-16T04:33:44;99395.91;;;2.47;89.72
34674;BME280;20879;55.668;37.858;2023-03-16T04:36:13;99388.97;;;2.36;89.94
34674;BME280;20879;55.668;37.858;2023-03-16T04:38:43;99380.47;;;2.37;89.90
34674;BME280;20879;55.668;37.858;2023-03-16T04:41:13;99377.66;;;2.19;90.20
34674;BME280;20879;55.668;37.858;2023-03-16T04:43:51;99383.66;;;2.21;90.63
34674;BME280;20879;55.668;37.858;2023-03-16T04:46:23;99399.00;;;2.22;90.78
34674;BME280;20879;55.668;37.858;2023-03-16T04:48:55;99407.69;;;2.35;91.09
34674;BME280;20879;55.668;37.858;2023-03-16T04:51:27;99411.06;;;2.34;91.10
34674;BME280;20879;55.668;37.858;2023-03-16T04:54:07;99402.41;;;2.21;91.23
34674;BME280;20879;55.668;37.858;2023-03-16T04:56:43;99405.78;;;2.20;91.64
34674;BME280;20879;55.668;37.858;2023-03-16T04:59:26;99412.44;;;2.09;91.91
34674;BME280;20879;55.668;37.858;2023-03-16T05:02:05;99419.28;;;2.10;91.85
34674;BME280;20879;55.668;37.858;2023-03-16T05:04:37;99415.78;;;2.06;93.26
34674;BME280;20879;55.668;37.858;2023-03-16T05:07:10;99420.00;;;2.03;92.88
34674;BME280;20879;55.668;37.858;2023-03-16T05:09:43;99411.59;;;2.08;92.80
34674;BME280;20879;55.668;37.858;2023-03-16T05:12:13;99421.13;;;2.22;93.05
34674;BME280;20879;55.668;37.858;2023-03-16T05:14:44;99425.50;;;2.31;93.38
34674;BME280;20879;55.668;37.858;2023-03-16T05:17:32;99427.25;;;2.33;92.75
34674;BME280;20879;55.668;37.858;2023-03-16T05:20:14;99435.00;;;2.39;92.23
34674;BME280;20879;55.668;37.858;2023-03-16T05:22:55;99430.69;;;2.37;92.45
34674;BME280;20879;55.668;37.858;2023-03-16T05:25:28;99402.47;;;2.26;92.30
34674;BME280;20879;55.668;37.858;2023-03-16T05:28:01;99425.66;;;2.43;92.31
34674;BME280;20879;55.668;37.858;2023-03-16T05:30:52;99432.56;;;2.49;92.24
34674;BME280;20879;55.668;37.858;2023-03-16T05:33:27;99435.03;;;2.42;91.83
34674;BME280;20879;55.668;37.858;2023-03-16T05:36:05;99425.53;;;2.32;92.75
34674;BME280;20879;55.668;37.858;2023-03-16T05:38:37;99425.75;;;2.48;92.44
34674;BME280;20879;55.668;37.858;2023-03-16T05:41:21;99431.06;;;2.65;92.79
34674;BME280;20879;55.668;37.858;2023-03-16T05:43:57;99417.41;;;2.62;92.89
34674;BME280;20879;55.668;37.858;2023-03-16T05:47:01;99418.41;;;2.75;92.20
34674;BME280;20879;55.668;37.858;2023-03-16T05:49:32;99417.53;;;2.73;91.78
34674;BME280;20879;55.668;37.858;2023-03-16T05:52:08;99424.28;;;2.67;91.93
34674;BME280;20879;55.668;37.858;2023-03-16T05:54:44;99419.78;;;2.49;92.61
34674;BME280;20879;55.668;37.858;2023-03-16T05:57:14;99417.25;;;2.52;92.83
34674;BME280;20879;55.668;37.858;2023-03-16T05:59:45;99413.03;;;2.54;92.90
34674;BME280;20879;55.668;37.858;2023-03-16T06:02:15;99414.56;;;2.41;92.59
34674;BME280;20879;55.668;37.858;2023-03-16T06:04:44;99416.31;;;2.43;93.08
34674;BME280;20879;55.668;37.858;2023-03-16T06:07:21;99411.38;;;2.59;92.91
34674;BME280;20879;55.668;37.858;2023-03-16T06:09:53;99434.63;;;2.77;92.69
34674;BME280;20879;55.668;37.858;2023-03-16T06:12:29;99443.28;;;2.87;92.80
34674;BME280;20879;55.668;37.858;2023-03-16T06:15:00;99448.47;;;2.96;92.20
34674;BME280;20879;55.668;37.858;2023-03-16T06:17:29;99444.28;;;3.02;92.14
34674;BME280;20879;55.668;37.858;2023-03-16T06:20:06;99438.31;;;3.03;91.98
34674;BME280;20879;55.668;37.858;2023-03-16T06:22:41;99405.75;;;2.88;91.52
34674;BME280;20879;55.668;37.858;2023-03-16T06:25:12;99437.66;;;3.21;91.27
34674;BME280;20879;55.668;37.858;2023-03-16T06:27:44;99446.16;;;3.17;90.65
34674;BME280;20879;55.668;37.858;2023-03-16T06:30:21;99444.41;;;3.14;90.72
34674;BME280;20879;55.668;37.858;2023-03-16T06:32:56;99444.31;;;3.03;90.34
34674;BME280;20879;55.668;37.858;2023-03-16T06:35:26;99446.06;;;3.10;90.18
34674;BME280;20879;55.668;37.858;2023-03-16T06:38:26;99457.13;;;3.08;89.85
34674;BME280;20879;55.668;37.858;2023-03-16T06:41:00;99428.84;;;2.94;90.17
34674;BME280;20879;55.668;37.858;2023-03-16T06:43:33;99445.97;;;3.01;90.32
34674;BME280;20879;55.668;37.858;2023-03-16T06:46:03;99461.34;;;3.04;89.95
34674;BME280;20879;55.668;37.858;2023-03-16T06:48:32;99464.88;;;3.15;90.42
34674;BME280;20879;55.668;37.858;2023-03-16T06:51:07;99444.31;;;3.05;90.37
34674;BME280;20879;55.668;37.858;2023-03-16T06:53:39;99449.53;;;3.15;90.25
34674;BME280;20879;55.668;37.858;2023-03-16T06:56:08;99464.88;;;3.14;90.30
34674;BME280;20879;55.668;37.858;2023-03-16T06:58:40;99458.03;;;3.14;90.41
34674;BME280;20879;55.668;37.858;2023-03-16T07:01:20;99458.06;;;3.18;89.95
34674;BME280;20879;55.668;37.858;2023-03-16T07:03:49;99431.59;;;3.11;89.77
34674;BME280;20879;55.668;37.858;2023-03-16T07:06:23;99446.41;;;3.41;89.44
34674;BME280;20879;55.668;37.858;2023-03-16T07:08:55;99456.81;;;3.64;88.82
34674;BME280;20879;55.668;37.858;2023-03-16T07:11:26;99443.19;;;3.67;88.10
34674;BME280;20879;55.668;37.858;2023-03-16T07:13:57;99446.47;;;3.50;88.08
34674;BME280;20879;55.668;37.858;2023-03-16T07:16:29;99457.59;;;3.57;88.27
34674;BME280;20879;55.668;37.858;2023-03-16T07:19:01;99446.66;;;3.72;88.10
34674;BME280;20879;55.668;37.858;2023-03-16T07:21:32;99440.81;;;3.92;87.87
34674;BME280;20879;55.668;37.858;2023-03-16T07:24:15;99441.81;;;4.12;86.66
34674;BME280;20879;55.668;37.858;2023-03-16T07:26:49;99431.66;;;4.25;85.55
34674;BME280;20879;55.668;37.858;2023-03-16T07:29:30;99441.13;;;4.36;85.24
34674;BME280;20879;55.668;37.858;2023-03-16T07:32:01;99417.97;;;4.27;84.84
34674;BME280;20879;55.668;37.858;2023-03-16T07:34:36;99445.47;;;4.50;84.29
34674;BME280;20879;55.668;37.858;2023-03-16T07:37:16;99438.50;;;4.32;83.25
34674;BME280;20879;55.668;37.858;2023-03-16T07:39:57;99435.09;;;4.30;83.96
34674;BME280;20879;55.668;37.858;2023-03-16T07:42:26;99442.78;;;4.28;84.41
34674;BME280;20879;55.668;37.858;2023-03-16T07:45:05;99445.16;;;4.00;84.03
34674;BME280;20879;55.668;37.858;2023-03-16T07:47:36;99438.31;;;4.01;85.41
34674;BME280;20879;55.668;37.858;2023-03-16T07:50:13;99440.88;;;4.02;85.40
34674;BME280;20879;55.668;37.858;2023-03-16T07:52:47;99439.19;;;4.00;85.65
34674;BME280;20879;55.668;37.858;2023-03-16T07:55:18;99430.63;;;4.01;85.74
34674;BME280;20879;55.668;37.858;2023-03-16T07:57:53;99434.16;;;4.17;85.97
34674;BME280;20879;55.668;37.858;2023-03-16T08:00:29;99438.56;;;4.35;85.64
34674;BME280;20879;55.668;37.858;2023-03-16T08:02:58;99418.84;;;4.25;85.06
34674;BME280;20879;55.668;37.858;2023-03-16T08:05:34;99423.91;;;4.18;85.35
34674;BME280;20879;55.668;37.858;2023-03-16T08:08:15;99420.47;;;4.13;85.81
34674;BME280;20879;55.668;37.858;2023-03-16T08:10:51;99428.06;;;3.98;85.74
34674;BME280;20879;55.668;37.858;2023-03-16T08:13:29;99431.28;;;3.72;86.68
34674;BME280;20879;55.668;37.858;2023-03-16T08:16:01;99437.25;;;3.73;87.10
34674;BME280;20879;55.668;37.858;2023-03-16T08:18:36;99424.63;;;3.96;87.07
34674;BME280;20879;55.668;37.858;2023-03-16T08:21:08;99428.22;;;4.26;86.53
34674;BME280;20879;55.668;37.858;2023-03-16T08:23:42;99429.25;;;4.55;85.05
34674;BME280;20879;55.668;37.858;2023-03-16T08:26:16;99436.16;;;4.75;83.82
34674;BME280;20879;55.668;37.858;2023-03-16T08:28:46;99430.22;;;4.85;83.41
34674;BME280;20879;55.668;37.858;2023-03-16T08:31:22;99406.19;;;4.62;82.73
34674;BME280;20879;55.668;37.858;2023-03-16T08:34:05;99437.06;;;4.80;82.69
34674;BME280;20879;55.668;37.858;2023-03-16T08:36:40;99429.31;;;4.76;82.43
34674;BME280;20879;55.668;37.858;2023-03-16T08:39:11;99440.41;;;4.68;82.55
34674;BME280;20879;55.668;37.858;2023-03-16T08:41:47;99433.50;;;4.57;82.87
34674;BME280;20879;55.668;37.858;2023-03-16T08:44:35;99448.06;;;4.64;82.53
34674;BME280;20879;55.668;37.858;2023-03-16T08:47:05;99451.44;;;4.50;82.76
34674;BME280;20879;55.668;37.858;2023-03-16T08:49:42;99440.25;;;4.39;82.93
34674;BME280;20879;55.668;37.858;2023-03-16T08:52:14;99441.94;;;4.31;83.00
34674;BME280;20879;55.668;37.858;2023-03-16T08:54:51;99446.91;;;4.06;83.97
34674;BME280;20879;55.668;37.858;2023-03-16T08:57:38;99448.69;;;4.16;84.65
34674;BME280;20879;55.668;37.858;2023-03-16T09:00:08;99441.03;;;4.27;85.22
34674;BME280;20879;55.668;37.858;2023-03-16T09:02:40;99443.59;;;4.23;84.99
34674;BME280;20879;55.668;37.858;2023-03-16T09:05:10;99446.19;;;4.27;85.39
34674;BME280;20879;55.668;37.858;2023-03-16T09:07:40;99444.47;;;4.26;85.58
34674;BME280;20879;55.668;37.858;2023-03-16T09:10:11;99440.19;;;4.27;85.20
34674;BME280;20879;55.668;37.858;2023-03-16T09:12:49;99445.31;;;4.24;85.43
34674;BME280;20879;55.668;37.858;2023-03-16T09:15:19;99443.53;;;4.12;85.72
34674;BME280;20879;55.668;37.858;2023-03-16T09:17:49;99440.06;;;4.08;86.26
34674;BME280;20879;55.668;37.858;2023-03-16T09:20:19;99443.44;;;4.01;86.26
34674;BME280;20879;55.668;37.858;2023-03-16T09:23:00;99443.44;;;4.02;86.54
34674;BME280;20879;55.668;37.858;2023-03-16T09:25:30;99438.19;;;3.79;86.88
34674;BME280;20879;55.668;37.858;2023-03-16T09:28:07;99446.72;;;3.81;87.16
34674;BME280;20879;55.668;37.858;2023-03-16T09:30:42;99441.63;;;3.83;87.00
34674;BME280;20879;55.668;37.858;2023-03-16T09:33:11;99442.63;;;4.08;87.07
34674;BME280;20879;55.668;37.858;2023-03-16T09:35:47;99435.94;;;4.29;86.14
34674;BME280;20879;55.668;37.858;2023-03-16T09:38:17;99449.69;;;4.45;85.57
34674;BME280;20879;55.668;37.858;2023-03-16T09:40:48;99448.88;;;4.50;84.54
34674;BME280;20879;55.668;37.858;2023-03-16T09:43:41;99438.59;;;4.44;84.19
34674;BME280;20879;55.668;37.858;2023-03-16T09:46:23;99447.09;;;4.37;84.59
34674;BME280;20879;55.668;37.858;2023-03-16T09:48:55;99438.56;;;4.35;84.53
34674;BME280;20879;55.668;37.858;2023-03-16T09:51:41;99433.38;;;4.32;84.31
34674;BME280;20879;55.668;37.858;2023-03-16T09:54:22;99439.38;;;4.34;84.78
34674;BME280;20879;55.668;37.858;2023-03-16T09:56:59;99437.78;;;4.51;84.18
34674;BME280;20879;55.668;37.858;2023-03-16T09:59:31;99436.13;;;4.63;84.43
34674;BME280;20879;55.668;37.858;2023-03-16T10:02:27;99432.78;;;4.85;83.85
34674;BME280;20879;55.668;37.858;2023-03-16T10:05:06;99433.69;;;5.09;83.15
34674;BME280;20879;55.668;37.858;2023-03-16T10:07:44;99433.69;;;5.00;81.90
34674;BME280;20879;55.668;37.858;2023-03-16T10:10:33;99435.31;;;4.76;82.82
34674;BME280;20879;55.668;37.858;2023-03-16T10:13:14;99436.19;;;4.80;82.70
34674;BME280;20879;55.668;37.858;2023-03-16T10:15:48;99437.91;;;4.90;82.99
34674;BME280;20879;55.668;37.858;2023-03-16T10:18:20;99446.53;;;5.04;82.89
34674;BME280;20879;55.668;37.858;2023-03-16T10:20:51;99443.13;;;5.19;82.59
34674;BME280;20879;55.668;37.858;2023-03-16T10:23:23;99443.19;;;5.41;81.61
34674;BME280;20879;55.668;37.858;2023-03-16T10:25:54;99435.50;;;5.56;81.40
34674;BME280;20879;55.668;37.858;2023-03-16T10:28:26;99444.03;;;5.72;80.32
34674;BME280;20879;55.668;37.858;2023-03-16T10:31:11;99443.19;;;5.73;78.84
34674;BME280;20879;55.668;37.858;2023-03-16T10:33:40;99444.91;;;5.53;79.46
34674;BME280;20879;55.668;37.858;2023-03-16T10:36:13;99443.19;;;5.33;79.60
34674;BME280;20879;55.668;37.858;2023-03-16T10:38:46;99440.50;;;4.92;80.53
34674;BME280;20879;55.668;37.858;2023-03-16T10:41:23;99437.72;;;4.42;81.25
34674;BME280;20879;55.668;37.858;2023-03-16T10:43:55;99459.13;;;4.50;82.27
34674;BME280;20879;55.668;37.858;2023-03-16T10:46:36;99455.75;;;4.59;81.85
34674;BME280;20879;55.668;37.858;2023-03-16T10:49:22;99444.59;;;4.51;81.79
34674;BME280;20879;55.668;37.858;2023-03-16T10:52:05;99453.81;;;4.15;82.86
34674;BME280;20879;55.668;37.858;2023-03-16T10:54:36;99450.22;;;3.93;84.01
34674;BME280;20879;55.668;37.858;2023-03-16T10:57:13;99452.66;;;3.77;85.64
34674;BME280;20879;55.668;37.858;2023-03-16T11:00:02;99448.22;;;3.55;86.52
34674;BME280;20879;55.668;37.858;2023-03-16T11:02:44;99452.56;;;3.63;85.67
34674;BME280;20879;55.668;37.858;2023-03-16T11:05:27;99450.94;;;3.76;85.75
34674;BME280;20879;55.668;37.858;2023-03-16T11:08:00;99450.13;;;3.80;85.48
34674;BME280;20879;55.668;37.858;2023-03-16T11:10:31;99446.78;;;3.92;85.28
34674;BME280;20879;55.668;37.858;2023-03-16T11:13:19;99450.19;;;3.87;84.47
34674;BME280;20879;55.668;37.858;2023-03-16T11:15:54;99457.00;;;3.86;85.36
34674;BME280;20879;55.668;37.858;2023-03-16T11:18:32;99461.38;;;3.99;85.54
34674;BME280;20879;55.668;37.858;2023-03-16T11:21:25;99457.19;;;4.12;85.10
34674;BME280;20879;55.668;37.858;2023-03-16T11:23:58;99461.44;;;4.07;84.53
34674;BME280;20879;55.668;37.858;2023-03-16T11:26:38;99456.22;;;3.96;84.52
34674;BME280;20879;55.668;37.858;2023-03-16T11:29:19;99458.69;;;3.82;84.93
34674;BME280;20879;55.668;37.858;2023-03-16T11:31:53;99459.50;;;3.75;85.48
34674;BME280;20879;55.668;37.858;2023-03-16T11:34:27;99465.50;;;3.80;85.54
34674;BME280;20879;55.668;37.858;2023-03-16T11:37:07;99467.38;;;4.03;85.51
34674;BME280;20879;55.668;37.858;2023-03-16T11:39:44;99461.56;;;4.27;85.15
34674;BME280;20879;55.668;37.858;2023-03-16T11:42:31;99466.78;;;4.43;84.67
34674;BME280;20879;55.668;37.858;2023-03-16T11:45:15;99462.50;;;4.43;85.22
34674;BME280;20879;55.668;37.858;2023-03-16T11:48:06;99470.97;;;4.30;85.20
34674;BME280;20879;55.668;37.858;2023-03-16T11:50:52;99465.91;;;4.41;85.75
34674;BME280;20879;55.668;37.858;2023-03-16T11:53:41;99475.34;;;4.51;85.70
34674;BME280;20879;55.668;37.858;2023-03-16T11:56:19;99479.63;;;4.47;85.03
34674;BME280;20879;55.668;37.858;2023-03-16T11:59:12;99478.69;;;4.34;85.15
34674;BME280;20879;55.668;37.858;2023-03-16T12:01:57;99484.69;;;4.35;85.19
34674;BME280;20879;55.668;37.858;2023-03-16T12:04:41;99493.22;;;4.35;84.93
34674;BME280;20879;55.668;37.858;2023-03-16T12:07:27;99495.78;;;4.34;85.28
34674;BME280;20879;55.668;37.858;2023-03-16T12:10:12;99486.38;;;4.33;85.13
34674;BME280;20879;55.668;37.858;2023-03-16T12:12:54;99494.94;;;4.35;84.50
34674;BME280;20879;55.668;37.858;2023-03-16T12:15:33;99491.50;;;4.31;84.63
34674;BME280;20879;55.668;37.858;2023-03-16T12:18:11;99495.78;;;4.34;85.03
34674;BME280;20879;55.668;37.858;2023-03-16T12:20:47;99494.97;;;4.36;84.79
34674;BME280;20879;55.668;37.858;2023-03-16T12:23:23;99483.81;;;4.34;84.67
34674;BME280;20879;55.668;37.858;2023-03-16T12:25:56;99494.16;;;4.45;84.39
34674;BME280;20879;55.668;37.858;2023-03-16T12:28:28;99491.63;;;4.51;84.73
34674;BME280;20879;55.668;37.858;2023-03-16T12:31:10;99484.81;;;4.60;84.75
34674;BME280;20879;55.668;37.858;2023-03-16T12:33:53;99493.41;;;4.69;84.52
34674;BME280;20879;55.668;37.858;2023-03-16T12:36:53;99493.41;;;4.68;84.40
34674;BME280;20879;55.668;37.858;2023-03-16T12:42:59;99497.56;;;4.46;84.60
34674;BME280;20879;55.668;37.858;2023-03-16T12:52:49;99481.78;;;3.90;83.10
34674;BME280;20879;55.668;37.858;2023-03-16T12:55:41;99510.03;;;3.98;84.67
34674;BME280;20879;55.668;37.858;2023-03-16T12:58:15;99510.00;;;3.93;84.93
34674;BME280;20879;55.668;37.858;2023-03-16T13:00:56;99513.47;;;3.97;84.87
34674;BME280;20879;55.668;37.858;2023-03-16T13:03:27;99509.19;;;3.97;85.32
34674;BME280;20879;55.668;37.858;2023-03-16T13:05:58;99513.41;;;3.92;85.43
34674;BME280;20879;55.668;37.858;2023-03-16T13:08:40;99517.50;;;3.75;86.20
34674;BME280;20879;55.668;37.858;2023-03-16T13:11:12;99508.78;;;3.56;86.45
34674;BME280;20879;55.668;37.858;2023-03-16T13:13:52;99506.97;;;3.42;87.07
34674;BME280;20879;55.668;37.858;2023-03-16T13:16:33;99511.19;;;3.37;87.30
34674;BME280;20879;55.668;37.858;2023-03-16T13:19:23;99503.28;;;3.17;89.76
34674;BME280;20879;55.668;37.858;2023-03-16T13:22:02;99473.84;;;2.79;89.78
34674;BME280;20879;55.668;37.858;2023-03-16T13:24:38;99503.69;;;2.80;90.22
34674;BME280;20879;55.668;37.858;2023-03-16T13:27:20;99507.06;;;2.78;90.19
34674;BME280;20879;55.668;37.858;2023-03-16T13:29:57;99505.22;;;2.66;89.73
34674;BME280;20879;55.668;37.858;2023-03-16T13:32:32;99506.00;;;2.62;90.35
34674;BME280;20879;55.668;37.858;2023-03-16T13:35:06;99495.38;;;2.33;92.62
34674;BME280;20879;55.668;37.858;2023-03-16T13:37:39;99496.97;;;2.24;92.39
34674;BME280;20879;55.668;37.858;2023-03-16T13:40:20;99480.69;;;2.19;92.46
34674;BME280;20879;55.668;37.858;2023-03-16T13:42:50;99506.53;;;2.39;92.46
34674;BME280;20879;55.668;37.858;2023-03-16T13:45:30;99498.78;;;2.32;93.07
34674;BME280;20879;55.668;37.858;2023-03-16T13:48:00;99493.56;;;2.25;93.37
34674;BME280;20879;55.668;37.858;2023-03-16T13:50:31;99511.50;;;2.29;93.24
34674;BME280;20879;55.668;37.858;2023-03-16T13:53:03;99507.28;;;2.32;93.58
34674;BME280;20879;55.668;37.858;2023-03-16T13:55:43;99483.25;;;2.19;94.01